sensor_id;sensor_type;location;lat;lon;timestamp;P1;durP1;ratioP1;P2;durP2;ratioP2
58017;SDS011;43810;50.860;19.226;2023-02-28T00:00:21;18.75;;;7.95;;
58017;SDS011;43810;50.860;19.226;2023-02-28T00:03:08;16.50;;;7.95;;
58017;SDS011;43810;50.860;19.226;2023-02-28T00:05:33;16.65;;;7.50;;
58017;SDS011;43810;50.860;19.226;2023-02-28T00:07:59;20.45;;;8.48;;
58017;SDS011;43810;50.860;19.226;2023-02-28T00:10:26;19.58;;;8.23;;
58017;SDS011;43810;50.860;19.226;2023-02-28T00:12:55;21.33;;;7.32;;
58017;SDS011;43810;50.860;19.226;2023-02-28T00:15:24;23.73;;;8.82;;
58017;SDS011;43810;50.860;19.226;2023-02-28T00:17:50;21.15;;;9.27;;
58017;SDS011;43810;50.860;19.226;2023-02-28T00:20:16;21.08;;;9.55;;
58017;SDS011;43810;50.860;19.226;2023-02-28T00:22:43;25.27;;;9.68;;
58017;SDS011;43810;50.860;19.226;2023-02-28T00:25:11;26.35;;;10.02;;
58017;SDS011;43810;50.860;19.226;2023-02-28T00:27:40;23.10;;;10.48;;
58017;SDS011;43810;50.860;19.226;2023-02-28T00:30:07;27.45;;;11.10;;
58017;SDS011;43810;50.860;19.226;2023-02-28T00:32:35;23.65;;;9.65;;
58017;SDS011;43810;50.860;19.226;2023-02-28T00:35:01;29.92;;;11.32;;
58017;SDS011;43810;50.860;19.226;2023-02-28T00:37:28;23.67;;;10.80;;
58017;SDS011;43810;50.860;19.226;2023-02-28T00:39:53;25.92;;;11.43;;
58017;SDS011;43810;50.860;19.226;2023-02-28T00:42:19;31.63;;;11.73;;
58017;SDS011;43810;50.860;19.226;2023-02-28T00:44:45;40.90;;;13.55;;
58017;SDS011;43810;50.860;19.226;2023-02-28T00:47:11;36.75;;;13.43;;
58017;SDS011;43810;50.860;19.226;2023-02-28T00:49:36;34.72;;;12.77;;
58017;SDS011;43810;50.860;19.226;2023-02-28T00:52:02;33.25;;;10.35;;
58017;SDS011;43810;50.860;19.226;2023-02-28T00:54:28;31.95;;;13.15;;
58017;SDS011;43810;50.860;19.226;2023-02-28T00:56:54;31.65;;;11.57;;
58017;SDS011;43810;50.860;19.226;2023-02-28T00:59:20;33.55;;;11.18;;
58017;SDS011;43810;50.860;19.226;2023-02-28T01:01:46;34.35;;;13.60;;
58017;SDS011;43810;50.860;19.226;2023-02-28T01:04:12;33.55;;;11.75;;
58017;SDS011;43810;50.860;19.226;2023-02-28T01:06:39;30.48;;;10.75;;
58017;SDS011;43810;50.860;19.226;2023-02-28T01:09:05;24.73;;;11.10;;
58017;SDS011;43810;50.860;19.226;2023-02-28T01:11:32;27.13;;;9.20;;
58017;SDS011;43810;50.860;19.226;2023-02-28T01:13:59;17.15;;;8.52;;
58017;SDS011;43810;50.860;19.226;2023-02-28T01:16:25;12.55;;;7.40;;
58017;SDS011;43810;50.860;19.226;2023-02-28T01:18:52;18.63;;;7.72;;
58017;SDS011;43810;50.860;19.226;2023-02-28T01:21:19;12.57;;;6.72;;
58017;SDS011;43810;50.860;19.226;2023-02-28T01:23:45;15.93;;;7.22;;
58017;SDS011;43810;50.860;19.226;2023-02-28T01:26:14;17.63;;;7.78;;
58017;SDS011;43810;50.860;19.226;2023-02-28T01:28:41;16.35;;;6.85;;
58017;SDS011;43810;50.860;19.226;2023-02-28T01:31:07;12.02;;;6.47;;
58017;SDS011;43810;50.860;19.226;2023-02-28T01:33:34;16.98;;;9.20;;
58017;SDS011;43810;50.860;19.226;2023-02-28T01:36:02;16.02;;;7.32;;
58017;SDS011;43810;50.860;19.226;2023-02-28T01:38:29;15.63;;;7.13;;
58017;SDS011;43810;50.860;19.226;2023-02-28T01:40:55;16.80;;;8.65;;
58017;SDS011;43810;50.860;19.226;2023-02-28T01:45:47;18.48;;;9.32;;
58017;SDS011;43810;50.860;19.226;2023-02-28T01:48:12;22.15;;;9.05;;
58017;SDS011;43810;50.860;19.226;2023-02-28T01:50:39;21.52;;;9.70;;
58017;SDS011;43810;50.860;19.226;2023-02-28T01:53:10;17.08;;;8.13;;
58017;SDS011;43810;50.860;19.226;2023-02-28T01:55:40;24.55;;;10.90;;
58017;SDS011;43810;50.860;19.226;2023-02-28T01:58:10;22.30;;;9.52;;
58017;SDS011;43810;50.860;19.226;2023-02-28T02:00:36;47.58;;;17.25;;
58017;SDS011;43810;50.860;19.226;2023-02-28T02:03:09;45.55;;;16.02;;
58017;SDS011;43810;50.860;19.226;2023-02-28T02:05:39;68.30;;;23.38;;
58017;SDS011;43810;50.860;19.226;2023-02-28T02:08:12;77.30;;;26.95;;
58017;SDS011;43810;50.860;19.226;2023-02-28T02:10:45;72.47;;;26.30;;
58017;SDS011;43810;50.860;19.226;2023-02-28T02:18:54;54.17;;;20.63;;
58017;SDS011;43810;50.860;19.226;2023-02-28T02:35:11;46.13;;;16.15;;
58017;SDS011;43810;50.860;19.226;2023-02-28T02:43:00;42.00;;;15.40;;
58017;SDS011;43810;50.860;19.226;2023-02-28T02:45:33;37.80;;;15.93;;
58017;SDS011;43810;50.860;19.226;2023-02-28T02:48:05;33.13;;;14.13;;
58017;SDS011;43810;50.860;19.226;2023-02-28T02:50:35;40.88;;;15.68;;
58017;SDS011;43810;50.860;19.226;2023-02-28T02:53:05;35.63;;;14.68;;
58017;SDS011;43810;50.860;19.226;2023-02-28T02:55:33;40.63;;;14.38;;
58017;SDS011;43810;50.860;19.226;2023-02-28T02:58:03;37.38;;;13.57;;
58017;SDS011;43810;50.860;19.226;2023-02-28T03:00:37;31.42;;;13.13;;
58017;SDS011;43810;50.860;19.226;2023-02-28T03:03:08;39.42;;;13.60;;
58017;SDS011;43810;50.860;19.226;2023-02-28T03:05:41;36.33;;;15.13;;
58017;SDS011;43810;50.860;19.226;2023-02-28T03:08:13;33.63;;;13.02;;
58017;SDS011;43810;50.860;19.226;2023-02-28T03:10:48;26.48;;;11.75;;
58017;SDS011;43810;50.860;19.226;2023-02-28T03:13:51;23.35;;;10.48;;
58017;SDS011;43810;50.860;19.226;2023-02-28T03:24:35;28.98;;;12.20;;
58017;SDS011;43810;50.860;19.226;2023-02-28T03:27:11;27.58;;;12.80;;
58017;SDS011;43810;50.860;19.226;2023-02-28T03:29:50;35.95;;;12.88;;
58017;SDS011;43810;50.860;19.226;2023-02-28T03:32:28;26.90;;;11.02;;
58017;SDS011;43810;50.860;19.226;2023-02-28T03:35:10;28.25;;;12.60;;
58017;SDS011;43810;50.860;19.226;2023-02-28T03:37:48;26.73;;;11.73;;
58017;SDS011;43810;50.860;19.226;2023-02-28T03:40:19;26.33;;;12.15;;
58017;SDS011;43810;50.860;19.226;2023-02-28T03:42:49;27.70;;;12.27;;
58017;SDS011;43810;50.860;19.226;2023-02-28T03:45:20;31.45;;;12.38;;
58017;SDS011;43810;50.860;19.226;2023-02-28T03:47:57;29.65;;;12.27;;
58017;SDS011;43810;50.860;19.226;2023-02-28T03:50:40;21.63;;;11.57;;
58017;SDS011;43810;50.860;19.226;2023-02-28T03:55:55;29.63;;;12.25;;
58017;SDS011;43810;50.860;19.226;2023-02-28T04:01:21;30.48;;;14.48;;
58017;SDS011;43810;50.860;19.226;2023-02-28T04:03:53;34.45;;;13.20;;
58017;SDS011;43810;50.860;19.226;2023-02-28T04:06:20;30.48;;;12.80;;
58017;SDS011;43810;50.860;19.226;2023-02-28T04:08:47;33.67;;;13.77;;
58017;SDS011;43810;50.860;19.226;2023-02-28T04:11:32;25.60;;;11.70;;
58017;SDS011;43810;50.860;19.226;2023-02-28T04:14:01;25.98;;;12.90;;
58017;SDS011;43810;50.860;19.226;2023-02-28T04:16:28;30.48;;;12.40;;
58017;SDS011;43810;50.860;19.226;2023-02-28T04:18:54;33.92;;;14.38;;
58017;SDS011;43810;50.860;19.226;2023-02-28T04:21:31;26.33;;;12.48;;
58017;SDS011;43810;50.860;19.226;2023-02-28T04:23:58;30.23;;;12.77;;
58017;SDS011;43810;50.860;19.226;2023-02-28T04:26:29;27.17;;;13.77;;
58017;SDS011;43810;50.860;19.226;2023-02-28T04:28:59;30.67;;;13.00;;
58017;SDS011;43810;50.860;19.226;2023-02-28T04:31:26;29.38;;;14.25;;
58017;SDS011;43810;50.860;19.226;2023-02-28T04:33:52;31.10;;;14.48;;
58017;SDS011;43810;50.860;19.226;2023-02-28T04:36:18;32.95;;;14.02;;
58017;SDS011;43810;50.860;19.226;2023-02-28T04:38:44;29.90;;;13.15;;
58017;SDS011;43810;50.860;19.226;2023-02-28T04:41:11;25.92;;;13.05;;
58017;SDS011;43810;50.860;19.226;2023-02-28T04:43:38;27.98;;;13.82;;
58017;SDS011;43810;50.860;19.226;2023-02-28T04:46:04;30.52;;;12.70;;
58017;SDS011;43810;50.860;19.226;2023-02-28T04:48:32;27.90;;;11.90;;
58017;SDS011;43810;50.860;19.226;2023-02-28T04:51:00;26.10;;;12.20;;
58017;SDS011;43810;50.860;19.226;2023-02-28T04:53:27;29.67;;;12.43;;
58017;SDS011;43810;50.860;19.226;2023-02-28T04:55:54;29.75;;;12.88;;
58017;SDS011;43810;50.860;19.226;2023-02-28T04:58:21;30.77;;;11.50;;
58017;SDS011;43810;50.860;19.226;2023-02-28T05:00:49;22.88;;;11.50;;
58017;SDS011;43810;50.860;19.226;2023-02-28T05:03:18;30.27;;;12.50;;
58017;SDS011;43810;50.860;19.226;2023-02-28T05:05:46;41.65;;;15.00;;
58017;SDS011;43810;50.860;19.226;2023-02-28T05:08:12;60.60;;;24.63;;
58017;SDS011;43810;50.860;19.226;2023-02-28T05:10:38;48.63;;;19.95;;
58017;SDS011;43810;50.860;19.226;2023-02-28T05:13:04;28.60;;;13.23;;
58017;SDS011;43810;50.860;19.226;2023-02-28T05:15:30;33.95;;;14.82;;
58017;SDS011;43810;50.860;19.226;2023-02-28T05:17:55;17.98;;;10.68;;
58017;SDS011;43810;50.860;19.226;2023-02-28T05:20:21;25.83;;;12.07;;
58017;SDS011;43810;50.860;19.226;2023-02-28T05:22:47;26.48;;;11.95;;
58017;SDS011;43810;50.860;19.226;2023-02-28T05:25:16;29.05;;;12.07;;
58017;SDS011;43810;50.860;19.226;2023-02-28T05:27:43;24.52;;;12.40;;
58017;SDS011;43810;50.860;19.226;2023-02-28T05:30:10;27.35;;;11.13;;
58017;SDS011;43810;50.860;19.226;2023-02-28T05:32:39;23.83;;;10.52;;
58017;SDS011;43810;50.860;19.226;2023-02-28T05:37:38;18.10;;;8.27;;
58017;SDS011;43810;50.860;19.226;2023-02-28T05:40:04;25.00;;;10.90;;
58017;SDS011;43810;50.860;19.226;2023-02-28T05:42:32;21.25;;;10.15;;
58017;SDS011;43810;50.860;19.226;2023-02-28T05:44:58;22.50;;;9.88;;
58017;SDS011;43810;50.860;19.226;2023-02-28T05:47:24;26.45;;;9.88;;
58017;SDS011;43810;50.860;19.226;2023-02-28T05:49:50;23.40;;;10.25;;
58017;SDS011;43810;50.860;19.226;2023-02-28T05:52:16;26.05;;;12.27;;
58017;SDS011;43810;50.860;19.226;2023-02-28T05:54:42;35.95;;;14.43;;
58017;SDS011;43810;50.860;19.226;2023-02-28T05:57:07;41.50;;;14.32;;
58017;SDS011;43810;50.860;19.226;2023-02-28T05:59:34;35.80;;;14.95;;
58017;SDS011;43810;50.860;19.226;2023-02-28T06:01:59;35.28;;;13.30;;
58017;SDS011;43810;50.860;19.226;2023-02-28T06:04:25;34.92;;;13.70;;
58017;SDS011;43810;50.860;19.226;2023-02-28T06:06:51;29.30;;;13.40;;
58017;SDS011;43810;50.860;19.226;2023-02-28T06:09:17;34.10;;;14.13;;
58017;SDS011;43810;50.860;19.226;2023-02-28T06:11:44;31.50;;;14.45;;
58017;SDS011;43810;50.860;19.226;2023-02-28T06:14:19;33.92;;;14.50;;
58017;SDS011;43810;50.860;19.226;2023-02-28T06:16:45;33.10;;;13.88;;
58017;SDS011;43810;50.860;19.226;2023-02-28T06:19:12;30.35;;;12.20;;
58017;SDS011;43810;50.860;19.226;2023-02-28T06:21:38;30.52;;;12.35;;
58017;SDS011;43810;50.860;19.226;2023-02-28T06:24:04;24.55;;;11.45;;
58017;SDS011;43810;50.860;19.226;2023-02-28T06:26:30;30.60;;;13.77;;
58017;SDS011;43810;50.860;19.226;2023-02-28T06:28:57;30.45;;;12.90;;
58017;SDS011;43810;50.860;19.226;2023-02-28T06:31:23;35.35;;;11.88;;
58017;SDS011;43810;50.860;19.226;2023-02-28T06:33:51;22.33;;;9.70;;
58017;SDS011;43810;50.860;19.226;2023-02-28T06:36:17;25.38;;;10.55;;
58017;SDS011;43810;50.860;19.226;2023-02-28T06:38:43;25.92;;;10.25;;
58017;SDS011;43810;50.860;19.226;2023-02-28T06:41:10;23.48;;;11.23;;
58017;SDS011;43810;50.860;19.226;2023-02-28T06:43:39;23.40;;;11.60;;
58017;SDS011;43810;50.860;19.226;2023-02-28T06:46:08;27.70;;;11.63;;
58017;SDS011;43810;50.860;19.226;2023-02-28T06:48:36;27.20;;;10.63;;
58017;SDS011;43810;50.860;19.226;2023-02-28T06:51:06;28.80;;;11.55;;
58017;SDS011;43810;50.860;19.226;2023-02-28T06:53:34;27.13;;;10.23;;
58017;SDS011;43810;50.860;19.226;2023-02-28T06:56:03;24.13;;;10.25;;
58017;SDS011;43810;50.860;19.226;2023-02-28T07:00:58;21.58;;;9.20;;
58017;SDS011;43810;50.860;19.226;2023-02-28T07:03:25;23.00;;;9.88;;
58017;SDS011;43810;50.860;19.226;2023-02-28T07:05:50;30.05;;;11.77;;
58017;SDS011;43810;50.860;19.226;2023-02-28T07:08:16;33.63;;;10.45;;
58017;SDS011;43810;50.860;19.226;2023-02-28T07:10:42;23.88;;;10.32;;
58017;SDS011;43810;50.860;19.226;2023-02-28T07:13:09;22.88;;;11.00;;
58017;SDS011;43810;50.860;19.226;2023-02-28T07:15:36;31.20;;;12.48;;
58017;SDS011;43810;50.860;19.226;2023-02-28T07:18:03;33.22;;;11.45;;
58017;SDS011;43810;50.860;19.226;2023-02-28T07:20:29;30.15;;;11.20;;
58017;SDS011;43810;50.860;19.226;2023-02-28T07:22:55;24.88;;;9.77;;
58017;SDS011;43810;50.860;19.226;2023-02-28T07:25:24;28.25;;;10.68;;
58017;SDS011;43810;50.860;19.226;2023-02-28T07:27:51;29.08;;;12.80;;
58017;SDS011;43810;50.860;19.226;2023-02-28T07:30:17;44.60;;;14.10;;
58017;SDS011;43810;50.860;19.226;2023-02-28T07:32:44;31.25;;;9.80;;
58017;SDS011;43810;50.860;19.226;2023-02-28T07:35:09;29.10;;;10.07;;
58017;SDS011;43810;50.860;19.226;2023-02-28T07:37:35;20.13;;;9.40;;
58017;SDS011;43810;50.860;19.226;2023-02-28T07:40:05;26.42;;;9.68;;
58017;SDS011;43810;50.860;19.226;2023-02-28T07:42:37;25.77;;;9.88;;
58017;SDS011;43810;50.860;19.226;2023-02-28T07:45:04;29.13;;;11.70;;
58017;SDS011;43810;50.860;19.226;2023-02-28T07:47:31;18.77;;;9.40;;
58017;SDS011;43810;50.860;19.226;2023-02-28T07:49:57;26.48;;;9.60;;
58017;SDS011;43810;50.860;19.226;2023-02-28T07:52:23;23.45;;;9.27;;
58017;SDS011;43810;50.860;19.226;2023-02-28T07:54:49;25.05;;;8.00;;
58017;SDS011;43810;50.860;19.226;2023-02-28T07:57:15;18.80;;;8.05;;
58017;SDS011;43810;50.860;19.226;2023-02-28T07:59:41;18.15;;;8.55;;
58017;SDS011;43810;50.860;19.226;2023-02-28T08:02:14;17.90;;;8.27;;
58017;SDS011;43810;50.860;19.226;2023-02-28T08:07:07;18.10;;;6.38;;
58017;SDS011;43810;50.860;19.226;2023-02-28T08:09:33;13.48;;;7.05;;
58017;SDS011;43810;50.860;19.226;2023-02-28T08:11:59;12.57;;;5.95;;
58017;SDS011;43810;50.860;19.226;2023-02-28T08:14:25;12.07;;;5.78;;
58017;SDS011;43810;50.860;19.226;2023-02-28T08:16:51;7.97;;;4.55;;
58017;SDS011;43810;50.860;19.226;2023-02-28T08:19:17;7.82;;;4.13;;
58017;SDS011;43810;50.860;19.226;2023-02-28T08:21:43;10.60;;;6.28;;
58017;SDS011;43810;50.860;19.226;2023-02-28T08:24:08;8.10;;;4.97;;
58017;SDS011;43810;50.860;19.226;2023-02-28T08:26:34;8.73;;;4.65;;
58017;SDS011;43810;50.860;19.226;2023-02-28T08:29:00;7.60;;;4.90;;
58017;SDS011;43810;50.860;19.226;2023-02-28T08:31:26;12.10;;;5.85;;
58017;SDS011;43810;50.860;19.226;2023-02-28T08:33:51;12.55;;;5.72;;
58017;SDS011;43810;50.860;19.226;2023-02-28T08:36:18;14.07;;;5.95;;
58017;SDS011;43810;50.860;19.226;2023-02-28T08:38:44;12.00;;;6.10;;
58017;SDS011;43810;50.860;19.226;2023-02-28T08:41:12;14.65;;;6.93;;
58017;SDS011;43810;50.860;19.226;2023-02-28T08:43:38;9.48;;;5.28;;
58017;SDS011;43810;50.860;19.226;2023-02-28T08:46:05;11.50;;;6.03;;
58017;SDS011;43810;50.860;19.226;2023-02-28T08:48:32;9.20;;;5.03;;
58017;SDS011;43810;50.860;19.226;2023-02-28T08:51:04;10.70;;;5.18;;
58017;SDS011;43810;50.860;19.226;2023-02-28T08:53:32;9.38;;;5.53;;
58017;SDS011;43810;50.860;19.226;2023-02-28T08:55:59;14.10;;;5.35;;
58017;SDS011;43810;50.860;19.226;2023-02-28T08:58:26;11.93;;;5.70;;
58017;SDS011;43810;50.860;19.226;2023-02-28T09:00:52;9.80;;;4.97;;
58017;SDS011;43810;50.860;19.226;2023-02-28T09:03:18;9.73;;;5.40;;
58017;SDS011;43810;50.860;19.226;2023-02-28T09:05:55;10.98;;;4.78;;
58017;SDS011;43810;50.860;19.226;2023-02-28T09:08:22;16.52;;;5.25;;
58017;SDS011;43810;50.860;19.226;2023-02-28T09:10:49;9.43;;;5.38;;
58017;SDS011;43810;50.860;19.226;2023-02-28T09:13:15;9.27;;;5.28;;
58017;SDS011;43810;50.860;19.226;2023-02-28T09:15:41;8.65;;;5.05;;
58017;SDS011;43810;50.860;19.226;2023-02-28T09:18:06;10.80;;;5.35;;
58017;SDS011;43810;50.860;19.226;2023-02-28T09:20:32;8.68;;;4.35;;
58017;SDS011;43810;50.860;19.226;2023-02-28T09:22:58;19.83;;;9.73;;
58017;SDS011;43810;50.860;19.226;2023-02-28T09:25:24;10.63;;;5.20;;
58017;SDS011;43810;50.860;19.226;2023-02-28T09:27:50;7.10;;;4.35;;
58017;SDS011;43810;50.860;19.226;2023-02-28T09:30:16;7.30;;;3.97;;
58017;SDS011;43810;50.860;19.226;2023-02-28T09:32:42;8.73;;;4.47;;
58017;SDS011;43810;50.860;19.226;2023-02-28T09:35:08;11.10;;;5.07;;
58017;SDS011;43810;50.860;19.226;2023-02-28T09:37:38;9.05;;;4.55;;
58017;SDS011;43810;50.860;19.226;2023-02-28T09:40:04;8.85;;;5.15;;
58017;SDS011;43810;50.860;19.226;2023-02-28T09:42:31;8.25;;;4.70;;
58017;SDS011;43810;50.860;19.226;2023-02-28T09:45:05;9.23;;;5.20;;
58017;SDS011;43810;50.860;19.226;2023-02-28T09:47:42;12.10;;;4.88;;
58017;SDS011;43810;50.860;19.226;2023-02-28T09:52:51;9.48;;;5.50;;
58017;SDS011;43810;50.860;19.226;2023-02-28T09:55:22;10.07;;;5.70;;
58017;SDS011;43810;50.860;19.226;2023-02-28T09:58:02;11.20;;;5.55;;
58017;SDS011;43810;50.860;19.226;2023-02-28T10:00:33;10.13;;;4.97;;
58017;SDS011;43810;50.860;19.226;2023-02-28T10:08:29;12.60;;;5.68;;
58017;SDS011;43810;50.860;19.226;2023-02-28T10:11:02;8.52;;;5.20;;
58017;SDS011;43810;50.860;19.226;2023-02-28T10:16:29;9.65;;;5.43;;
58017;SDS011;43810;50.860;19.226;2023-02-28T10:19:09;10.00;;;5.40;;
58017;SDS011;43810;50.860;19.226;2023-02-28T10:21:59;8.77;;;5.00;;
58017;SDS011;43810;50.860;19.226;2023-02-28T10:29:51;10.77;;;5.25;;
58017;SDS011;43810;50.860;19.226;2023-02-28T10:32:20;9.85;;;5.32;;
58017;SDS011;43810;50.860;19.226;2023-02-28T10:34:53;9.18;;;5.15;;
58017;SDS011;43810;50.860;19.226;2023-02-28T10:37:24;8.77;;;5.20;;
58017;SDS011;43810;50.860;19.226;2023-02-28T10:39:51;9.40;;;5.20;;
58017;SDS011;43810;50.860;19.226;2023-02-28T10:42:21;10.35;;;5.53;;
58017;SDS011;43810;50.860;19.226;2023-02-28T10:50:26;13.38;;;6.35;;
58017;SDS011;43810;50.860;19.226;2023-02-28T10:55:33;11.45;;;6.07;;
58017;SDS011;43810;50.860;19.226;2023-02-28T10:57:59;12.23;;;6.13;;
58017;SDS011;43810;50.860;19.226;2023-02-28T11:00:25;13.57;;;5.18;;
58017;SDS011;43810;50.860;19.226;2023-02-28T11:02:59;8.88;;;5.40;;
58017;SDS011;43810;50.860;19.226;2023-02-28T11:05:35;9.50;;;5.53;;
58017;SDS011;43810;50.860;19.226;2023-02-28T11:08:15;12.13;;;6.47;;
58017;SDS011;43810;50.860;19.226;2023-02-28T11:10:46;12.45;;;6.13;;
58017;SDS011;43810;50.860;19.226;2023-02-28T11:13:17;10.45;;;6.00;;
58017;SDS011;43810;50.860;19.226;2023-02-28T11:15:53;10.73;;;5.65;;
58017;SDS011;43810;50.860;19.226;2023-02-28T11:20:59;12.68;;;6.35;;
58017;SDS011;43810;50.860;19.226;2023-02-28T11:23:28;12.32;;;6.75;;
58017;SDS011;43810;50.860;19.226;2023-02-28T11:25:59;9.60;;;5.65;;
58017;SDS011;43810;50.860;19.226;2023-02-28T11:28:28;12.98;;;6.05;;
58017;SDS011;43810;50.860;19.226;2023-02-28T11:33:40;13.23;;;6.90;;
58017;SDS011;43810;50.860;19.226;2023-02-28T11:36:20;11.32;;;5.45;;
58017;SDS011;43810;50.860;19.226;2023-02-28T11:39:00;15.07;;;7.35;;
58017;SDS011;43810;50.860;19.226;2023-02-28T11:45:22;11.27;;;6.47;;
58017;SDS011;43810;50.860;19.226;2023-02-28T11:53:24;9.40;;;5.38;;
58017;SDS011;43810;50.860;19.226;2023-02-28T12:02:23;12.25;;;6.57;;
58017;SDS011;43810;50.860;19.226;2023-02-28T12:11:15;13.80;;;7.38;;
58017;SDS011;43810;50.860;19.226;2023-02-28T12:16:39;13.10;;;7.45;;
58017;SDS011;43810;50.860;19.226;2023-02-28T12:19:23;13.40;;;6.63;;
58017;SDS011;43810;50.860;19.226;2023-02-28T12:25:02;11.15;;;6.30;;
58017;SDS011;43810;50.860;19.226;2023-02-28T12:27:47;11.57;;;6.30;;
58017;SDS011;43810;50.860;19.226;2023-02-28T12:30:29;14.15;;;6.38;;
58017;SDS011;43810;50.860;19.226;2023-02-28T12:33:09;12.85;;;6.07;;
58017;SDS011;43810;50.860;19.226;2023-02-28T12:41:00;11.23;;;6.47;;
58017;SDS011;43810;50.860;19.226;2023-02-28T12:43:33;11.90;;;6.63;;
58017;SDS011;43810;50.860;19.226;2023-02-28T12:46:13;10.30;;;5.78;;
58017;SDS011;43810;50.860;19.226;2023-02-28T12:51:17;12.13;;;7.03;;
58017;SDS011;43810;50.860;19.226;2023-02-28T12:56:43;12.93;;;6.88;;
58017;SDS011;43810;50.860;19.226;2023-02-28T12:59:14;11.60;;;6.63;;
58017;SDS011;43810;50.860;19.226;2023-02-28T13:10:07;17.33;;;8.15;;
58017;SDS011;43810;50.860;19.226;2023-02-28T13:12:34;13.18;;;7.32;;
58017;SDS011;43810;50.860;19.226;2023-02-28T13:17:54;16.88;;;8.68;;
58017;SDS011;43810;50.860;19.226;2023-02-28T13:20:25;13.73;;;7.53;;
58017;SDS011;43810;50.860;19.226;2023-02-28T13:27:51;14.95;;;7.38;;
58017;SDS011;43810;50.860;19.226;2023-02-28T13:33:20;14.13;;;7.60;;
58017;SDS011;43810;50.860;19.226;2023-02-28T13:35:46;11.70;;;7.30;;
58017;SDS011;43810;50.860;19.226;2023-02-28T13:38:15;11.57;;;6.38;;
58017;SDS011;43810;50.860;19.226;2023-02-28T13:40:46;14.23;;;7.75;;
58017;SDS011;43810;50.860;19.226;2023-02-28T13:43:13;13.00;;;7.65;;
58017;SDS011;43810;50.860;19.226;2023-02-28T13:46:03;10.80;;;6.45;;
58017;SDS011;43810;50.860;19.226;2023-02-28T13:48:38;12.25;;;6.60;;
58017;SDS011;43810;50.860;19.226;2023-02-28T13:54:22;14.43;;;7.80;;
58017;SDS011;43810;50.860;19.226;2023-02-28T13:57:11;16.55;;;7.65;;
58017;SDS011;43810;50.860;19.226;2023-02-28T13:59:46;12.38;;;7.95;;
58017;SDS011;43810;50.860;19.226;2023-02-28T14:05:18;12.05;;;8.07;;
58017;SDS011;43810;50.860;19.226;2023-02-28T14:07:52;14.73;;;7.57;;
58017;SDS011;43810;50.860;19.226;2023-02-28T14:10:23;15.48;;;7.63;;
58017;SDS011;43810;50.860;19.226;2023-02-28T14:20:54;14.05;;;7.80;;
58017;SDS011;43810;50.860;19.226;2023-02-28T14:23:50;12.05;;;7.60;;
58017;SDS011;43810;50.860;19.226;2023-02-28T14:26:49;12.75;;;7.90;;
58017;SDS011;43810;50.860;19.226;2023-02-28T14:34:52;15.65;;;8.02;;
58017;SDS011;43810;50.860;19.226;2023-02-28T14:37:29;16.15;;;8.48;;
58017;SDS011;43810;50.860;19.226;2023-02-28T14:39:58;13.88;;;7.15;;
58017;SDS011;43810;50.860;19.226;2023-02-28T14:42:33;11.93;;;7.55;;
58017;SDS011;43810;50.860;19.226;2023-02-28T14:45:00;13.80;;;7.28;;
58017;SDS011;43810;50.860;19.226;2023-02-28T14:47:31;13.82;;;7.28;;
58017;SDS011;43810;50.860;19.226;2023-02-28T14:49:59;15.25;;;7.60;;
58017;SDS011;43810;50.860;19.226;2023-02-28T14:52:27;18.02;;;8.00;;
58017;SDS011;43810;50.860;19.226;2023-02-28T14:54:55;14.30;;;7.50;;
58017;SDS011;43810;50.860;19.226;2023-02-28T14:57:42;12.63;;;6.80;;
58017;SDS011;43810;50.860;19.226;2023-02-28T15:00:25;22.83;;;11.88;;
58017;SDS011;43810;50.860;19.226;2023-02-28T15:02:54;12.38;;;7.38;;
58017;SDS011;43810;50.860;19.226;2023-02-28T15:05:33;26.63;;;13.55;;
58017;SDS011;43810;50.860;19.226;2023-02-28T15:08:01;18.45;;;8.18;;
58017;SDS011;43810;50.860;19.226;2023-02-28T15:10:29;15.55;;;8.15;;
58017;SDS011;43810;50.860;19.226;2023-02-28T15:12:57;12.70;;;7.32;;
58017;SDS011;43810;50.860;19.226;2023-02-28T15:15:38;14.63;;;7.72;;
58017;SDS011;43810;50.860;19.226;2023-02-28T15:21:17;13.10;;;6.85;;
58017;SDS011;43810;50.860;19.226;2023-02-28T15:23:50;18.27;;;6.82;;
58017;SDS011;43810;50.860;19.226;2023-02-28T15:26:20;13.30;;;6.15;;
58017;SDS011;43810;50.860;19.226;2023-02-28T15:28:52;12.27;;;6.70;;
58017;SDS011;43810;50.860;19.226;2023-02-28T15:31:28;12.70;;;6.43;;
58017;SDS011;43810;50.860;19.226;2023-02-28T15:33:58;14.45;;;7.82;;
58017;SDS011;43810;50.860;19.226;2023-02-28T15:36:30;14.45;;;7.80;;
58017;SDS011;43810;50.860;19.226;2023-02-28T15:38:59;17.05;;;7.78;;
58017;SDS011;43810;50.860;19.226;2023-02-28T15:41:27;15.18;;;6.88;;
58017;SDS011;43810;50.860;19.226;2023-02-28T15:49:28;14.05;;;6.30;;
58017;SDS011;43810;50.860;19.226;2023-02-28T15:51:59;15.40;;;6.97;;
58017;SDS011;43810;50.860;19.226;2023-02-28T15:54:30;14.38;;;7.18;;
58017;SDS011;43810;50.860;19.226;2023-02-28T15:57:06;15.93;;;6.80;;
58017;SDS011;43810;50.860;19.226;2023-02-28T15:59:39;14.60;;;6.93;;
58017;SDS011;43810;50.860;19.226;2023-02-28T16:04:57;12.50;;;7.20;;
58017;SDS011;43810;50.860;19.226;2023-02-28T16:07:26;19.88;;;8.88;;
58017;SDS011;43810;50.860;19.226;2023-02-28T16:09:53;14.77;;;6.82;;
58017;SDS011;43810;50.860;19.226;2023-02-28T16:12:19;31.90;;;11.43;;
58017;SDS011;43810;50.860;19.226;2023-02-28T16:14:51;21.05;;;8.63;;
58017;SDS011;43810;50.860;19.226;2023-02-28T16:17:24;22.10;;;8.48;;
58017;SDS011;43810;50.860;19.226;2023-02-28T16:19:52;19.95;;;8.98;;
58017;SDS011;43810;50.860;19.226;2023-02-28T16:22:19;19.63;;;9.52;;
58017;SDS011;43810;50.860;19.226;2023-02-28T16:24:46;17.92;;;8.18;;
58017;SDS011;43810;50.860;19.226;2023-02-28T16:27:19;18.58;;;9.20;;
58017;SDS011;43810;50.860;19.226;2023-02-28T16:29:49;19.63;;;9.25;;
58017;SDS011;43810;50.860;19.226;2023-02-28T16:32:15;17.48;;;7.65;;
58017;SDS011;43810;50.860;19.226;2023-02-28T16:34:42;18.40;;;8.45;;
58017;SDS011;43810;50.860;19.226;2023-02-28T16:37:12;26.13;;;10.82;;
58017;SDS011;43810;50.860;19.226;2023-02-28T16:39:41;34.05;;;15.15;;
58017;SDS011;43810;50.860;19.226;2023-02-28T16:42:10;34.42;;;14.30;;
58017;SDS011;43810;50.860;19.226;2023-02-28T16:44:56;48.50;;;18.25;;
58017;SDS011;43810;50.860;19.226;2023-02-28T16:47:23;49.03;;;17.58;;
58017;SDS011;43810;50.860;19.226;2023-02-28T16:49:49;48.92;;;20.13;;
58017;SDS011;43810;50.860;19.226;2023-02-28T16:52:15;45.53;;;19.45;;
58017;SDS011;43810;50.860;19.226;2023-02-28T16:54:42;50.78;;;21.50;;
58017;SDS011;43810;50.860;19.226;2023-02-28T16:57:19;62.75;;;21.88;;
58017;SDS011;43810;50.860;19.226;2023-02-28T16:59:47;68.05;;;26.00;;
58017;SDS011;43810;50.860;19.226;2023-02-28T17:02:16;64.22;;;25.92;;
58017;SDS011;43810;50.860;19.226;2023-02-28T17:04:44;61.35;;;24.50;;
58017;SDS011;43810;50.860;19.226;2023-02-28T17:07:11;56.95;;;23.05;;
58017;SDS011;43810;50.860;19.226;2023-02-28T17:09:39;51.85;;;21.70;;
58017;SDS011;43810;50.860;19.226;2023-02-28T17:12:06;63.22;;;26.02;;
58017;SDS011;43810;50.860;19.226;2023-02-28T17:14:32;73.82;;;27.45;;
58017;SDS011;43810;50.860;19.226;2023-02-28T17:16:57;69.38;;;27.48;;